createdAt,value
2023-04-04T00:00:39.187Z,99929.22
2023-04-04T00:03:06.818Z,99935.63
2023-04-04T00:05:35.817Z,99940.16
2023-04-04T00:08:03.737Z,99929.22
2023-04-04T00:10:30.489Z,99941.97
2023-04-04T00:12:57.142Z,99952.25
2023-04-04T00:15:24.035Z,99947.91
2023-04-04T00:17:50.986Z,99950.03
2023-04-04T00:20:17.881Z,99946.09
2023-04-04T00:22:45.198Z,99954.09
2023-04-04T00:25:12.330Z,99943.06
2023-04-04T00:27:39.175Z,99932.97
2023-04-04T00:30:07.196Z,99944.88
2023-04-04T00:32:34.090Z,99940.22
2023-04-04T00:35:01.076Z,99934.25
2023-04-04T00:37:28.116Z,99938.63
2023-04-04T00:39:54.799Z,99943.78
2023-04-04T00:42:21.818Z,99948.50
2023-04-04T00:44:48.740Z,99936.94
2023-04-04T00:47:15.546Z,99945.41
2023-04-04T00:49:42.782Z,99950.19
2023-04-04T00:52:09.616Z,99949.34
2023-04-04T00:54:36.488Z,99957.97
2023-04-04T00:57:04.827Z,99957.97
2023-04-04T00:59:32.718Z,99956.75
2023-04-04T01:02:00.778Z,99949.66
2023-04-04T01:04:29.624Z,99951.91
2023-04-04T01:06:57.006Z,99943.94
2023-04-04T01:09:23.780Z,99948.97
2023-04-04T01:11:51.617Z,99942.97
2023-04-04T01:14:18.324Z,99945.81
2023-04-04T01:16:45.569Z,99943.41
2023-04-04T01:19:24.786Z,99937.44
2023-04-04T01:21:52.928Z,99944.22
2023-04-04T01:24:22.511Z,99939.41
2023-04-04T01:26:56.863Z,99941.81
2023-04-04T01:29:23.930Z,99945.97
2023-04-04T01:31:57.968Z,99943.69
2023-04-04T01:34:44.784Z,99943.38
2023-04-04T01:37:19.212Z,99944.47
2023-04-04T01:39:53.785Z,99942.47
2023-04-04T01:42:21.127Z,99945.81
2023-04-04T01:44:54.932Z,99944.16
2023-04-04T01:47:22.517Z,99938.41
2023-04-04T01:49:49.315Z,99950.50
2023-04-04T01:52:16.991Z,99934.50
2023-04-04T01:54:43.646Z,99934.59
2023-04-04T01:57:10.467Z,99934.66
2023-04-04T01:59:37.248Z,99929.31
2023-04-04T02:02:04.161Z,99925.59
2023-04-04T02:04:30.764Z,99923.06
2023-04-04T02:06:57.603Z,99922.03
2023-04-04T02:09:24.742Z,99924.09
2023-04-04T02:11:51.715Z,99916.75
2023-04-04T02:14:19.584Z,99921.38
2023-04-04T02:16:46.459Z,99921.22
2023-04-04T02:19:13.181Z,99919.56
2023-04-04T02:21:40.054Z,99913.41
2023-04-04T02:24:07.325Z,99909.69
2023-04-04T02:26:34.328Z,99912.66
2023-04-04T02:29:01.121Z,99910.53
2023-04-04T02:31:28.126Z,99907.97
2023-04-04T02:33:55.481Z,99914.47
2023-04-04T02:36:22.289Z,99905.09
2023-04-04T02:38:52.254Z,99911.00
2023-04-04T02:41:23.388Z,99918.16
2023-04-04T02:43:50.258Z,99915.06
2023-04-04T02:46:21.982Z,99909.19
2023-04-04T02:48:55.492Z,99911.75
2023-04-04T02:51:22.507Z,99912.09
2023-04-04T02:53:49.385Z,99917.69
2023-04-04T02:56:22.225Z,99903.06
2023-04-04T02:58:49.101Z,99900.38
2023-04-04T03:01:16.256Z,99900.44
2023-04-04T03:03:43.161Z,99895.38
2023-04-04T03:06:10.083Z,99901.34
2023-04-04T03:08:37.201Z,99894.78
2023-04-04T03:11:05.047Z,99893.50
2023-04-04T03:13:31.896Z,99887.31
2023-04-04T03:16:04.764Z,99892.16
2023-04-04T03:18:41.953Z,99894.69
2023-04-04T03:21:08.838Z,99885.28
2023-04-04T03:23:35.684Z,99888.97
2023-04-04T03:26:02.636Z,99873.31
2023-04-04T03:28:29.376Z,99880.09
2023-04-04T03:30:56.784Z,99884.16
2023-04-04T03:33:23.600Z,99880.78
2023-04-04T03:35:50.595Z,99885.47
2023-04-04T03:38:17.631Z,99875.56
2023-04-04T03:40:44.533Z,99868.00
2023-04-04T03:43:12.840Z,99865.31
2023-04-04T03:45:41.036Z,99875.78
2023-04-04T03:48:10.082Z,99866.94
2023-04-04T03:50:37.612Z,99867.47
2023-04-04T03:53:04.267Z,99861.38
2023-04-04T03:55:31.282Z,99858.91
2023-04-04T03:57:59.564Z,99864.19
2023-04-04T04:00:27.094Z,99859.69
2023-04-04T04:02:53.869Z,99863.69
2023-04-04T04:05:20.570Z,99854.66
2023-04-04T04:07:47.175Z,99867.84
2023-04-04T04:10:17.049Z,99856.38
2023-04-04T04:12:43.821Z,99856.31
2023-04-04T04:15:11.164Z,99862.75
2023-04-04T04:17:40.785Z,99867.19
2023-04-04T04:20:09.734Z,99866.31
2023-04-04T04:22:46.378Z,99868.69
2023-04-04T04:25:14.437Z,99860.44
2023-04-04T04:27:44.867Z,99859.78
2023-04-04T04:30:13.035Z,99860.13
2023-04-04T04:32:43.604Z,99866.06
2023-04-04T04:35:11.581Z,99877.69
2023-04-04T04:37:38.912Z,99880.81
2023-04-04T04:40:08.709Z,99890.44
2023-04-04T04:42:46.078Z,99876.25
2023-04-04T04:45:16.001Z,99877.69
2023-04-04T04:47:47.227Z,99888.59
2023-04-04T04:50:17.806Z,99884.44
2023-04-04T04:52:50.626Z,99889.28
2023-04-04T04:55:17.873Z,99885.94
2023-04-04T04:57:50.630Z,99899.94
2023-04-04T05:00:23.503Z,99882.88
2023-04-04T05:02:51.304Z,99897.66
2023-04-04T05:05:26.582Z,99903.53
2023-04-04T05:08:03.872Z,99909.59
2023-04-04T05:10:31.206Z,99907.97
2023-04-04T05:12:58.195Z,99910.63
2023-04-04T05:15:29.360Z,99917.91
2023-04-04T05:17:56.200Z,99915.97
2023-04-04T05:20:23.400Z,99920.59
2023-04-04T05:22:51.711Z,99915.66
2023-04-04T05:25:25.366Z,99920.59
2023-04-04T05:27:52.649Z,99927.59
2023-04-04T05:30:21.463Z,99929.78
2023-04-04T05:32:59.149Z,99920.41
2023-04-04T05:35:28.860Z,99926.22
2023-04-04T05:37:57.416Z,99931.06
2023-04-04T05:40:24.876Z,99927.78
2023-04-04T05:43:04.300Z,99932.84
2023-04-04T05:45:38.426Z,99942.34
2023-04-04T05:48:07.021Z,99932.50
2023-04-04T05:50:40.609Z,99941.56
2023-04-04T05:53:08.085Z,99932.38
2023-04-04T05:55:34.932Z,99930.53
2023-04-04T05:58:01.958Z,99937.06
2023-04-04T06:00:43.785Z,99946.13
2023-04-04T06:03:10.862Z,99944.97
2023-04-04T06:05:37.852Z,99941.16
2023-04-04T06:08:04.842Z,99952.22
2023-04-04T06:10:31.842Z,99961.66
2023-04-04T06:12:58.669Z,99936.81
2023-04-04T06:15:25.655Z,99945.97
2023-04-04T06:17:52.745Z,99933.94
2023-04-04T06:20:21.487Z,99943.69
2023-04-04T06:22:49.928Z,99942.34
2023-04-04T06:25:18.338Z,99935.59
2023-04-04T06:27:46.548Z,99945.13
2023-04-04T06:30:17.077Z,99949.44
2023-04-04T06:32:55.588Z,99949.44
2023-04-04T06:35:32.184Z,99943.56
2023-04-04T06:38:00.901Z,99943.56
2023-04-04T06:40:29.627Z,99948.09
2023-04-04T06:42:58.620Z,99944.78
2023-04-04T06:45:35.963Z,99943.13
2023-04-04T06:48:03.859Z,99935.19
2023-04-04T06:50:33.794Z,99930.88
2023-04-04T06:53:03.546Z,99942.19
2023-04-04T06:55:30.406Z,99934.53
2023-04-04T06:57:57.144Z,99937.63
2023-04-04T07:00:23.979Z,99939.53
2023-04-04T07:02:50.867Z,99936.41
2023-04-04T07:05:18.281Z,99938.53
2023-04-04T07:07:47.049Z,99928.28
2023-04-04T07:10:13.749Z,99933.09
2023-04-04T07:12:41.336Z,99922.53
2023-04-04T07:15:09.207Z,99923.34
2023-04-04T07:17:38.768Z,99937.22
2023-04-04T07:20:06.614Z,99919.66
2023-04-04T07:22:33.442Z,99932.78
2023-04-04T07:25:00.281Z,99939.00
2023-04-04T07:27:27.304Z,99954.53
2023-04-04T07:29:54.317Z,99941.66
2023-04-04T07:32:23.237Z,99939.38
2023-04-04T07:34:51.093Z,99936.75
2023-04-04T07:37:18.587Z,99940.06
2023-04-04T07:39:45.508Z,99923.78
2023-04-04T07:42:12.325Z,99931.25
2023-04-04T07:44:39.031Z,99939.03
2023-04-04T07:47:09.949Z,99944.91
2023-04-04T07:49:37.341Z,99950.16
2023-04-04T07:52:05.098Z,99947.22
2023-04-04T07:54:31.966Z,99945.03
2023-04-04T07:56:58.816Z,99943.59
2023-04-04T07:59:25.757Z,99948.03
2023-04-04T08:01:52.781Z,99952.50
2023-04-04T08:04:19.754Z,99944.38
2023-04-04T08:06:46.730Z,99949.69
2023-04-04T08:09:13.558Z,99951.00
2023-04-04T08:11:40.200Z,99947.34
2023-04-04T08:14:06.945Z,99938.38
2023-04-04T08:16:33.837Z,99952.34
2023-04-04T08:19:00.805Z,99944.63
2023-04-04T08:21:27.693Z,99941.88
2023-04-04T08:23:54.686Z,99931.84
2023-04-04T08:26:22.074Z,99942.09
2023-04-04T08:28:50.204Z,99941.97
2023-04-04T08:31:17.093Z,99936.91
2023-04-04T08:33:47.740Z,99940.75
2023-04-04T08:36:15.691Z,99937.09
2023-04-04T08:38:42.730Z,99935.31
2023-04-04T08:41:09.793Z,99925.63
2023-04-04T08:43:38.147Z,99918.88
2023-04-04T08:46:06.045Z,99908.34
2023-04-04T08:48:33.890Z,99910.13
2023-04-04T08:51:01.029Z,99898.13
2023-04-04T08:53:29.440Z,99895.81
2023-04-04T08:55:58.127Z,99896.88
2023-04-04T08:58:24.832Z,99922.13
2023-04-04T09:00:55.452Z,99894.66
2023-04-04T09:03:26.331Z,99902.81
2023-04-04T09:05:54.384Z,99910.69
2023-04-04T09:08:23.782Z,99905.47
2023-04-04T09:10:52.479Z,99906.34
2023-04-04T09:13:19.513Z,99902.69
2023-04-04T09:15:49.337Z,99896.25
2023-04-04T09:18:17.184Z,99895.56
2023-04-04T09:20:46.806Z,99893.34
2023-04-04T09:23:19.220Z,99894.81
2023-04-04T09:28:21.691Z,99884.31
2023-04-04T09:30:49.920Z,99877.88
2023-04-04T09:33:18.250Z,99882.91
2023-04-04T09:35:47.710Z,99879.50
2023-04-04T09:38:15.336Z,99869.94
2023-04-04T09:40:43.158Z,99876.84
2023-04-04T09:43:12.406Z,99883.50
2023-04-04T09:45:42.098Z,99875.69
2023-04-04T09:48:11.716Z,99880.34
2023-04-04T09:50:45.862Z,99886.44
2023-04-04T09:53:19.220Z,99875.03
2023-04-04T09:55:54.013Z,99876.44
2023-04-04T09:58:32.070Z,99891.09
2023-04-04T10:01:01.275Z,99869.56
2023-04-04T10:03:29.224Z,99868.34
2023-04-04T10:06:14.256Z,99869.97
2023-04-04T10:08:43.178Z,99879.13
2023-04-04T10:11:12.424Z,99860.97
2023-04-04T10:13:46.708Z,99855.03
2023-04-04T10:16:14.338Z,99870.22
2023-04-04T10:18:42.576Z,99855.88
2023-04-04T10:23:41.604Z,99847.03
2023-04-04T10:26:08.377Z,99851.88
2023-04-04T10:28:35.539Z,99857.47
2023-04-04T10:31:21.538Z,99859.84
2023-04-04T10:33:54.576Z,99854.34
2023-04-04T10:36:23.667Z,99851.88
2023-04-04T10:39:06.465Z,99847.06
2023-04-04T10:41:33.456Z,99844.41
2023-04-04T10:44:01.450Z,99834.66
2023-04-04T10:46:31.956Z,99835.59
2023-04-04T10:49:00.422Z,99841.44
2023-04-04T10:51:27.615Z,99824.00
2023-04-04T10:53:54.991Z,99844.91
2023-04-04T10:56:22.531Z,99827.41
2023-04-04T10:58:49.505Z,99839.47
2023-04-04T11:01:21.521Z,99821.72
2023-04-04T11:04:22.026Z,99811.38
2023-04-04T11:07:18.355Z,99809.53
2023-04-04T11:09:58.917Z,99802.91
2023-04-04T11:12:38.433Z,99780.94
2023-04-04T11:15:10.367Z,99792.38
2023-04-04T11:17:49.410Z,99795.06
2023-04-04T11:20:21.449Z,99793.94
2023-04-04T11:23:03.915Z,99782.13
2023-04-04T11:25:41.970Z,99780.19
2023-04-04T11:28:25.287Z,99790.56
2023-04-04T11:31:17.607Z,99769.84
2023-04-04T11:34:05.307Z,99769.81
2023-04-04T11:36:38.941Z,99747.53
2023-04-04T11:39:22.829Z,99745.34
2023-04-04T11:41:53.516Z,99753.00
2023-04-04T11:44:23.944Z,99750.31
2023-04-04T11:46:58.552Z,99760.47
2023-04-04T11:49:32.255Z,99744.34
2023-04-04T11:51:59.095Z,99732.06
2023-04-04T11:54:26.426Z,99740.31
2023-04-04T11:56:53.709Z,99737.38
2023-04-04T11:59:21.843Z,99733.84
2023-04-04T12:01:50.040Z,99727.72
2023-04-04T12:04:20.710Z,99708.78
2023-04-04T12:06:53.456Z,99726.34
2023-04-04T12:09:21.184Z,99711.44
2023-04-04T12:11:48.621Z,99705.00
2023-04-04T12:14:23.794Z,99700.56
2023-04-04T12:16:56.764Z,99696.25
2023-04-04T12:19:24.201Z,99696.38
2023-04-04T12:21:52.319Z,99690.47
2023-04-04T12:24:19.494Z,99676.81
2023-04-04T12:26:47.881Z,99680.28
2023-04-04T12:29:17.182Z,99652.63
2023-04-04T12:31:45.363Z,99667.25
2023-04-04T12:37:04.715Z,99679.66
2023-04-04T12:39:31.997Z,99660.38
2023-04-04T12:42:03.596Z,99666.00
2023-04-04T12:44:31.323Z,99669.06
2023-04-04T12:47:00.387Z,99669.31
2023-04-04T12:49:31.718Z,99649.34
2023-04-04T12:52:04.936Z,99646.28
2023-04-04T12:54:33.407Z,99669.41
2023-04-04T12:57:04.404Z,99662.19
2023-04-04T12:59:36.285Z,99660.47
2023-04-04T13:02:07.882Z,99645.75
2023-04-04T13:04:37.942Z,99643.44
2023-04-04T13:07:08.200Z,99638.75
2023-04-04T13:09:36.969Z,99645.91
2023-04-04T13:12:09.259Z,99651.97
2023-04-04T13:15:01.098Z,99650.56
2023-04-04T13:17:47.248Z,99639.72
2023-04-04T13:23:28.038Z,99625.66
2023-04-04T13:26:09.993Z,99639.91
2023-04-04T13:29:09.404Z,99645.66
2023-04-04T13:31:39.025Z,99641.75
2023-04-04T13:34:13.243Z,99642.84
2023-04-04T13:39:35.783Z,99623.09
2023-04-04T13:45:05.594Z,99642.50
2023-04-04T13:47:37.596Z,99633.75
2023-04-04T13:50:12.567Z,99648.09
2023-04-04T13:56:07.657Z,99637.56
2023-04-04T13:58:35.441Z,99629.75
2023-04-04T14:01:09.006Z,99644.72
2023-04-04T14:03:37.271Z,99642.66
2023-04-04T14:06:10.949Z,99654.13
2023-04-04T14:08:39.463Z,99650.25
2023-04-04T14:11:07.310Z,99645.59
2023-04-04T14:13:34.322Z,99652.63
2023-04-04T14:16:02.664Z,99637.13
2023-04-04T14:18:31.074Z,99634.94
2023-04-04T14:20:58.172Z,99641.91
2023-04-04T14:23:25.436Z,99651.25
2023-04-04T14:25:52.612Z,99657.16
2023-04-04T14:28:19.801Z,99671.06
2023-04-04T14:30:47.230Z,99654.09
2023-04-04T14:33:15.382Z,99653.28
2023-04-04T14:35:42.647Z,99647.50
2023-04-04T14:38:09.926Z,99661.84
2023-04-04T14:40:37.605Z,99656.81
2023-04-04T14:43:06.148Z,99650.31
2023-04-04T14:45:33.644Z,99664.06
2023-04-04T14:48:06.171Z,99667.56
2023-04-04T14:50:33.491Z,99670.44
2023-04-04T14:53:00.938Z,99659.03
2023-04-04T14:55:28.903Z,99646.66
2023-04-04T14:58:02.505Z,99654.63
2023-04-04T15:00:31.080Z,99642.63
2023-04-04T15:02:59.099Z,99669.88
2023-04-04T15:05:27.652Z,99659.72
2023-04-04T15:07:56.098Z,99661.84
2023-04-04T15:10:24.315Z,99656.53
2023-04-04T15:12:51.554Z,99657.06
2023-04-04T15:15:19.030Z,99660.84
2023-04-04T15:17:48.502Z,99657.69
2023-04-04T15:20:15.784Z,99653.50
2023-04-04T15:22:43.520Z,99630.47
2023-04-04T15:25:12.804Z,99659.94
2023-04-04T15:27:41.203Z,99674.53
2023-04-04T15:30:09.060Z,99658.97
2023-04-04T15:32:36.605Z,99665.69
2023-04-04T15:35:04.628Z,99658.56
2023-04-04T15:37:31.574Z,99658.44
2023-04-04T15:39:59.704Z,99663.50
2023-04-04T15:42:28.551Z,99663.38
2023-04-04T15:44:55.998Z,99669.06
2023-04-04T15:47:23.075Z,99676.09
2023-04-04T15:49:54.305Z,99669.47
2023-04-04T15:52:21.596Z,99670.50
2023-04-04T15:54:51.114Z,99674.97
2023-04-04T15:57:21.617Z,99671.25
2023-04-04T15:59:52.254Z,99675.34
2023-04-04T16:02:19.549Z,99681.91
2023-04-04T16:04:50.143Z,99686.47
2023-04-04T16:07:19.037Z,99679.13
2023-04-04T16:09:46.553Z,99671.00
2023-04-04T16:12:14.252Z,99675.41
2023-04-04T16:14:45.728Z,99676.44
2023-04-04T16:17:15.142Z,99678.66
2023-04-04T16:28:10.748Z,99707.03
2023-04-04T16:30:39.555Z,99688.41
2023-04-04T16:33:07.058Z,99691.66
2023-04-04T16:35:37.061Z,99692.91
2023-04-04T16:38:09.653Z,99701.28
2023-04-04T16:40:39.583Z,99713.28
2023-04-04T16:43:08.107Z,99703.19
2023-04-04T16:45:35.023Z,99696.25
2023-04-04T16:48:02.042Z,99704.78
2023-04-04T16:50:28.912Z,99703.28
2023-04-04T16:52:55.821Z,99705.69
2023-04-04T16:55:34.127Z,99703.38
2023-04-04T16:58:01.382Z,99712.00
2023-04-04T17:00:33.435Z,99704.59
2023-04-04T17:03:03.555Z,99698.84
2023-04-04T17:05:34.224Z,99713.78
2023-04-04T17:08:04.496Z,99714.44
2023-04-04T17:10:31.796Z,99713.84
2023-04-04T17:13:03.153Z,99711.75
2023-04-04T17:15:34.148Z,99709.38
2023-04-04T17:18:05.092Z,99714.03
2023-04-04T17:20:34.612Z,99713.88
2023-04-04T17:23:04.554Z,99711.19
2023-04-04T17:28:26.969Z,99722.59
2023-04-04T17:30:59.643Z,99727.06
2023-04-04T17:33:38.986Z,99727.41
2023-04-04T17:36:09.918Z,99720.25
2023-04-04T17:38:40.434Z,99732.03
2023-04-04T17:41:08.608Z,99728.28
2023-04-04T17:43:44.228Z,99735.66
2023-04-04T17:46:12.105Z,99738.56
2023-04-04T20:12:41.286Z,99920.72
2023-04-04T20:19:52.110Z,99920.41
2023-04-04T20:22:27.043Z,99924.19
2023-04-04T20:25:07.560Z,99935.53
2023-04-04T20:27:42.497Z,99933.94
2023-04-04T20:30:23.824Z,99938.78
2023-04-04T20:33:04.368Z,99933.41
2023-04-04T20:35:32.692Z,99936.06
2023-04-04T20:37:59.985Z,99948.31
2023-04-04T20:40:42.735Z,99951.69
2023-04-04T20:43:10.319Z,99948.63
2023-04-04T20:45:48.340Z,99953.19
2023-04-04T20:48:55.025Z,99960.41
2023-04-04T20:54:14.573Z,99961.00
2023-04-04T20:56:57.166Z,99964.47
2023-04-04T20:59:48.821Z,99972.47
2023-04-04T21:02:42.840Z,99963.91
2023-04-04T21:05:32.673Z,99958.22
2023-04-04T21:08:29.903Z,99963.91
2023-04-04T21:11:29.280Z,99960.69
2023-04-04T21:13:57.738Z,99955.84
2023-04-04T21:16:28.056Z,99951.13
2023-04-04T21:19:00.246Z,99961.41
2023-04-04T21:21:30.823Z,99961.41
2023-04-04T21:24:01.054Z,99958.47
2023-04-04T21:26:34.941Z,99962.06
2023-04-04T21:29:07.151Z,99956.34
2023-04-04T21:31:39.110Z,99956.66
2023-04-04T21:34:12.268Z,99955.00
2023-04-04T21:36:39.259Z,99955.59
2023-04-04T21:39:31.192Z,99954.03
2023-04-04T21:42:07.882Z,99955.28
2023-04-04T21:44:35.661Z,99951.16
2023-04-04T21:47:02.585Z,99950.72
2023-04-04T21:49:29.504Z,99950.88
2023-04-04T21:51:56.311Z,99963.06
2023-04-04T21:54:23.249Z,99958.34
2023-04-04T21:56:50.147Z,99960.97
2023-04-04T21:59:17.117Z,99962.78
2023-04-04T22:04:42.253Z,99956.69
2023-04-04T22:07:09.406Z,99955.88
2023-04-04T22:09:38.695Z,99950.59
2023-04-04T22:12:05.810Z,99958.66
2023-04-04T22:14:32.739Z,99953.94
2023-04-04T22:16:59.839Z,99954.91
2023-04-04T22:19:26.841Z,99945.47
2023-04-04T22:21:54.409Z,99950.75
2023-04-04T22:24:21.708Z,99951.59
2023-04-04T22:26:50.487Z,99949.94
2023-04-04T22:29:17.860Z,99959.75
2023-04-04T22:31:44.755Z,99947.72
2023-04-04T22:34:21.466Z,99951.44
2023-04-04T22:36:57.937Z,99955.63
2023-04-04T22:40:05.031Z,99953.53
2023-04-04T23:09:46.476Z,99933.19
2023-04-04T23:12:58.836Z,99936.50
2023-04-04T23:24:29.701Z,99925.16
